Etusivu
METAR-TAF:

METAR-TAF

Lentoasemat :

Kerrville Municipal Airport (Louis Schreiner Field)

Kerrville, Texas, Yhdysvallat

Leveyspiiri: 29-58N, Pituuspiiri: 099-05W, korkeus merenpinnasta: 493 m

Tämänhetkinen sää

Tämä raportti tehtiin 24 minuuttia sitten, kello 14.35 UTC
Tuuli 13 kn etelästä
Lämpötila 26°C
Kosteus 79%
Ilmanpaine 1020 hPa
Näkyvyys: 16.1 km
Hajonneita pilviä 1900 ft:n korkeudessa
Hajonneita pilviä 2500 ft:n korkeudessa

METAR: KERV 101435Z AUTO 19013KT 10SM BKN019 BKN025 26/22 A3012 RMK AO2 T02610215

Aika: 09:59 (14:59 UTC)


TAF: puuttuu

Säähavainnot ja -ennusteet yli 4000 lentoasemalta (METAR- ja TAF-raportit).

Käytössä olevat sääasemat on merkitty karttaan keltaisilla ja punaisilla pisteillä.

Aseta hiiri pisteen päälle nähdäksesi sääaseman nimen.

Klikkaa sitten nähdäksesi säähavainnot ja -ennusteet.

Kartan vaihtaminen: klikkaa mustalla rastilla varustettuja vihreitä pisteitä, niin voit zoomata sisään; viivalla varustettua vihreää pistettä, niin voit zoomata ulos tai vihreitä nuolia, niin pääset viereisille kartoille.


METAR-TAF: